createdAt,value
2022-11-27T00:01:11.005Z,3.50
2022-11-27T00:03:39.247Z,2.90
2022-11-27T00:06:07.913Z,3.67
2022-11-27T00:08:37.235Z,3.00
2022-11-27T00:11:09.577Z,3.40
2022-11-27T00:13:37.995Z,3.63
2022-11-27T00:16:07.078Z,3.03
2022-11-27T00:18:35.561Z,3.67
2022-11-27T00:21:04.809Z,3.37
2022-11-27T00:23:34.376Z,3.43
2022-11-27T00:26:04.417Z,2.90
2022-11-27T00:28:32.645Z,3.03
2022-11-27T00:31:01.399Z,3.73
2022-11-27T00:33:30.011Z,3.37
2022-11-27T00:35:57.937Z,3.27
2022-11-27T00:38:25.811Z,3.30
2022-11-27T00:40:53.762Z,3.27
2022-11-27T00:43:22.957Z,2.90
2022-11-27T00:45:51.064Z,2.83
2022-11-27T00:48:18.999Z,2.93
2022-11-27T00:50:47.893Z,2.53
2022-11-27T00:53:15.815Z,2.80
2022-11-27T00:55:43.792Z,2.80
2022-11-27T00:58:11.650Z,3.00
2022-11-27T01:00:40.849Z,2.37
2022-11-27T01:03:08.999Z,2.50
2022-11-27T01:05:38.074Z,2.33
2022-11-27T01:08:06.349Z,2.67
2022-11-27T01:10:34.214Z,2.50
2022-11-27T01:13:02.196Z,2.33
2022-11-27T01:15:30.190Z,2.50
2022-11-27T01:17:59.980Z,2.60
2022-11-27T01:20:28.541Z,2.70
2022-11-27T01:22:56.414Z,2.80
2022-11-27T01:25:27.110Z,2.57
2022-11-27T01:27:55.186Z,2.77
2022-11-27T01:30:23.081Z,2.20
2022-11-27T01:32:50.949Z,2.87
2022-11-27T01:35:20.236Z,2.23
2022-11-27T01:37:48.105Z,2.00
2022-11-27T01:40:16.083Z,3.00
2022-11-27T01:42:44.121Z,2.70
2022-11-27T01:45:16.007Z,2.63
2022-11-27T01:47:47.948Z,2.40
2022-11-27T01:50:23.137Z,3.30
2022-11-27T01:52:53.944Z,2.33
2022-11-27T01:55:29.677Z,2.87
2022-11-27T01:58:02.118Z,2.43
2022-11-27T02:00:30.013Z,2.63
2022-11-27T02:02:58.192Z,2.97
2022-11-27T02:05:29.205Z,2.80
2022-11-27T02:08:00.003Z,2.77
2022-11-27T02:10:37.788Z,3.27
2022-11-27T02:13:10.595Z,3.40
2022-11-27T02:15:47.886Z,3.13
2022-11-27T02:18:22.899Z,3.17
2022-11-27T02:20:59.170Z,3.07
2022-11-27T02:23:50.176Z,3.37
2022-11-27T02:26:48.576Z,3.53
2022-11-27T02:29:21.316Z,3.73
2022-11-27T02:31:58.381Z,3.33
2022-11-27T02:34:31.877Z,4.13
2022-11-27T02:37:06.154Z,3.87
2022-11-27T02:39:37.219Z,4.70
2022-11-27T02:42:12.040Z,4.83
2022-11-27T02:44:46.718Z,4.47
2022-11-27T02:47:15.723Z,4.77
2022-11-27T02:49:45.083Z,4.63
2022-11-27T02:52:15.884Z,4.73
2022-11-27T02:54:47.359Z,5.47
2022-11-27T02:57:16.992Z,5.50
2022-11-27T02:59:46.831Z,5.37
2022-11-27T03:02:20.231Z,5.63
2022-11-27T03:04:52.168Z,5.87
2022-11-27T03:07:26.855Z,6.40
2022-11-27T03:10:00.525Z,6.17
2022-11-27T03:12:28.962Z,6.57
2022-11-27T03:14:58.478Z,7.33
2022-11-27T03:17:37.527Z,6.43
2022-11-27T03:20:11.974Z,6.47
2022-11-27T03:22:39.958Z,6.17
2022-11-27T03:25:08.467Z,6.87
2022-11-27T03:27:42.167Z,7.53
2022-11-27T03:30:13.782Z,6.83
2022-11-27T03:32:42.054Z,6.97
2022-11-27T03:35:12.110Z,7.63
2022-11-27T03:37:40.126Z,9.20
2022-11-27T03:40:10.031Z,7.03
2022-11-27T03:42:50.783Z,7.53
2022-11-27T03:45:30.048Z,7.67
2022-11-27T03:48:11.750Z,8.27
2022-11-27T03:50:52.522Z,7.90
2022-11-27T03:53:27.276Z,7.93
2022-11-27T03:56:12.943Z,9.33
2022-11-27T03:58:45.929Z,8.83
2022-11-27T04:01:19.493Z,8.23
2022-11-27T04:03:47.525Z,8.00
2022-11-27T04:06:15.534Z,7.33
2022-11-27T04:08:43.922Z,8.50
2022-11-27T04:11:11.816Z,7.70
2022-11-27T04:13:39.764Z,7.27
2022-11-27T04:16:08.819Z,7.60
2022-11-27T04:18:38.128Z,7.33
2022-11-27T04:21:06.337Z,7.20
2022-11-27T04:23:34.369Z,6.73
2022-11-27T04:26:02.261Z,7.37
2022-11-27T04:28:30.575Z,6.70
2022-11-27T04:30:58.889Z,7.80
2022-11-27T04:33:26.882Z,7.57
2022-11-27T04:35:56.142Z,7.17
2022-11-27T04:38:24.942Z,7.30
2022-11-27T04:40:53.397Z,6.80
2022-11-27T04:43:21.626Z,6.90
2022-11-27T04:45:49.490Z,7.03
2022-11-27T04:48:17.379Z,7.93
2022-11-27T04:50:45.371Z,6.27
2022-11-27T04:53:14.712Z,7.00
2022-11-27T04:55:42.619Z,6.53
2022-11-27T04:58:10.535Z,6.93
2022-11-27T05:00:38.503Z,6.10
2022-11-27T05:03:06.575Z,6.23
2022-11-27T05:05:34.519Z,6.93
2022-11-27T05:08:02.491Z,6.43
2022-11-27T05:10:32.206Z,7.33
2022-11-27T05:13:00.064Z,6.00
2022-11-27T05:15:27.926Z,5.97
2022-11-27T05:17:55.828Z,5.13
2022-11-27T05:20:23.761Z,6.43
2022-11-27T05:22:51.731Z,6.30
2022-11-27T05:25:19.619Z,6.00
2022-11-27T05:27:48.951Z,6.00
2022-11-27T05:30:17.103Z,5.20
2022-11-27T05:32:45.218Z,5.03
2022-11-27T05:35:14.045Z,5.37
2022-11-27T05:37:41.890Z,5.80
2022-11-27T05:40:10.406Z,5.40
2022-11-27T05:42:38.245Z,5.63
2022-11-27T05:45:08.994Z,5.10
2022-11-27T05:47:36.992Z,4.97
2022-11-27T05:50:06.952Z,4.97
2022-11-27T05:52:34.896Z,4.50
2022-11-27T05:55:02.872Z,4.93
2022-11-27T05:57:31.168Z,5.17
2022-11-27T05:59:59.182Z,5.60
2022-11-27T06:02:29.676Z,4.67
2022-11-27T06:04:57.931Z,4.73
2022-11-27T06:07:25.945Z,5.40
2022-11-27T06:09:53.842Z,4.73
2022-11-27T06:12:21.796Z,5.00
2022-11-27T06:14:49.695Z,4.37
2022-11-27T06:17:17.592Z,4.77
2022-11-27T06:19:47.059Z,4.97
2022-11-27T06:22:15.002Z,4.03
2022-11-27T06:24:43.222Z,4.40
2022-11-27T06:27:11.255Z,3.90
2022-11-27T06:29:39.584Z,4.60
2022-11-27T06:32:08.165Z,3.77
2022-11-27T06:34:36.113Z,4.50
2022-11-27T06:37:08.087Z,3.67
2022-11-27T06:39:39.828Z,4.43
2022-11-27T06:42:07.722Z,4.50
2022-11-27T06:44:35.606Z,4.17
2022-11-27T06:47:03.491Z,3.87
2022-11-27T06:49:31.428Z,4.37
2022-11-27T06:51:59.350Z,4.50
2022-11-27T06:54:28.633Z,4.03
2022-11-27T06:56:56.544Z,4.27
2022-11-27T06:59:24.401Z,3.97
2022-11-27T07:01:52.481Z,3.93
2022-11-27T07:04:20.946Z,4.33
2022-11-27T07:06:48.810Z,4.00
2022-11-27T07:09:17.022Z,3.73
2022-11-27T07:11:46.282Z,3.97
2022-11-27T07:14:14.222Z,3.77
2022-11-27T07:16:42.238Z,4.27
2022-11-27T07:19:11.219Z,4.13
2022-11-27T07:21:39.225Z,3.90
2022-11-27T07:24:07.799Z,3.60
2022-11-27T07:26:35.859Z,3.70
2022-11-27T07:29:05.163Z,3.73
2022-11-27T07:31:33.136Z,3.80
2022-11-27T07:34:01.301Z,3.60
2022-11-27T07:36:31.198Z,3.60
2022-11-27T07:38:59.791Z,3.90
2022-11-27T07:41:32.441Z,3.50
2022-11-27T07:44:02.238Z,3.60
2022-11-27T07:46:31.473Z,3.40
2022-11-27T07:49:00.504Z,3.93
2022-11-27T07:51:29.943Z,4.17
2022-11-27T07:53:57.943Z,3.80
2022-11-27T07:56:25.823Z,4.10
2022-11-27T07:58:53.791Z,4.10
2022-11-27T08:01:22.529Z,3.83
2022-11-27T08:03:51.804Z,3.47
2022-11-27T08:06:22.509Z,3.93
2022-11-27T08:08:51.194Z,4.37
2022-11-27T08:11:21.373Z,3.90
2022-11-27T08:13:50.105Z,4.20
2022-11-27T08:16:18.303Z,4.03
2022-11-27T08:18:46.245Z,4.30
2022-11-27T08:21:17.833Z,4.17
2022-11-27T08:23:45.898Z,3.50
2022-11-27T08:26:14.807Z,4.17
2022-11-27T08:28:43.370Z,3.60
2022-11-27T08:31:13.546Z,3.87
2022-11-27T08:33:41.547Z,4.00
2022-11-27T08:36:14.956Z,3.57
2022-11-27T08:38:47.189Z,4.00
2022-11-27T08:41:15.167Z,3.70
2022-11-27T08:43:43.173Z,3.50
2022-11-27T08:46:11.407Z,4.00
2022-11-27T08:48:39.447Z,3.60
2022-11-27T08:51:09.078Z,4.27
2022-11-27T08:53:37.762Z,3.53
2022-11-27T08:56:14.945Z,3.43
2022-11-27T08:58:43.137Z,3.80
2022-11-27T09:01:12.910Z,3.67
2022-11-27T09:03:40.855Z,3.93
2022-11-27T09:06:10.391Z,4.00
2022-11-27T09:08:38.727Z,3.20
2022-11-27T09:11:08.256Z,3.93
2022-11-27T09:13:38.177Z,3.70
2022-11-27T09:16:07.120Z,4.30
2022-11-27T09:18:35.470Z,3.87
2022-11-27T09:21:04.976Z,3.77
2022-11-27T09:23:32.963Z,3.83
2022-11-27T09:26:01.442Z,4.07
2022-11-27T09:28:31.600Z,4.17
2022-11-27T09:31:02.809Z,3.63
2022-11-27T09:33:32.476Z,3.83
2022-11-27T09:36:04.714Z,4.40
2022-11-27T09:38:33.189Z,4.77
2022-11-27T09:41:07.455Z,4.70
2022-11-27T09:43:42.576Z,4.87
2022-11-27T09:46:19.777Z,5.30
2022-11-27T09:48:51.734Z,4.13
2022-11-27T09:51:26.521Z,5.07
2022-11-27T09:54:01.381Z,5.07
2022-11-27T09:56:31.387Z,4.70
2022-11-27T09:59:01.129Z,5.30
2022-11-27T10:01:42.918Z,4.70
2022-11-27T10:04:16.359Z,4.97
2022-11-27T10:07:17.339Z,4.70
2022-11-27T10:10:02.564Z,4.40
2022-11-27T10:12:40.331Z,4.63
2022-11-27T10:15:13.955Z,4.50
2022-11-27T10:17:48.965Z,4.27
2022-11-27T10:20:28.648Z,4.37
2022-11-27T10:23:04.388Z,4.43
2022-11-27T10:25:38.648Z,4.40
2022-11-27T10:28:18.031Z,4.30
2022-11-27T10:30:52.551Z,3.70
2022-11-27T10:33:26.942Z,4.23
2022-11-27T10:35:55.413Z,3.90
2022-11-27T10:38:26.983Z,4.50
2022-11-27T10:41:09.750Z,3.63
2022-11-27T10:43:40.112Z,3.83
2022-11-27T10:46:14.930Z,4.57
2022-11-27T10:48:44.327Z,3.90
2022-11-27T10:51:16.886Z,3.70
2022-11-27T10:53:47.183Z,3.80
2022-11-27T10:56:44.814Z,3.70
2022-11-27T10:59:16.995Z,3.63
2022-11-27T11:01:47.153Z,3.43
2022-11-27T11:04:37.432Z,3.90
2022-11-27T11:07:17.057Z,3.33
2022-11-27T11:09:48.557Z,3.93
2022-11-27T11:12:20.962Z,3.80
2022-11-27T11:14:52.272Z,3.77
2022-11-27T11:17:26.301Z,4.00
2022-11-27T11:19:55.899Z,3.90
2022-11-27T11:22:24.746Z,3.43
2022-11-27T11:24:54.122Z,3.87
2022-11-27T11:27:26.454Z,3.70
2022-11-27T11:29:56.481Z,3.80
2022-11-27T11:32:26.800Z,3.40
2022-11-27T11:35:01.363Z,3.40
2022-11-27T11:37:31.643Z,3.40
2022-11-27T11:40:02.164Z,3.27
2022-11-27T11:42:32.484Z,3.70
2022-11-27T11:45:05.187Z,3.80
2022-11-27T11:47:35.435Z,3.27
2022-11-27T11:50:05.086Z,3.73
2022-11-27T11:52:46.421Z,3.03
2022-11-27T11:55:20.921Z,2.90
2022-11-27T11:58:26.126Z,2.97
2022-11-27T12:01:26.110Z,2.77
2022-11-27T12:04:35.083Z,2.73
2022-11-27T12:08:02.463Z,2.43
2022-11-27T12:10:53.504Z,2.40
2022-11-27T12:13:47.811Z,2.80
2022-11-27T12:16:24.586Z,2.87
2022-11-27T12:19:05.292Z,2.73
2022-11-27T12:21:42.918Z,2.53
2022-11-27T12:24:26.458Z,2.50
2022-11-27T12:27:12.531Z,2.27
2022-11-27T12:30:07.645Z,2.63
2022-11-27T12:32:57.828Z,2.47
2022-11-27T12:35:33.320Z,2.90
2022-11-27T12:38:33.148Z,2.67
2022-11-27T12:41:42.045Z,2.60
2022-11-27T12:44:21.105Z,2.33
2022-11-27T12:46:56.064Z,2.67
2022-11-27T12:49:28.874Z,2.73
2022-11-27T12:52:02.227Z,3.20
2022-11-27T12:54:33.514Z,3.30
2022-11-27T12:57:07.380Z,3.03
2022-11-27T12:59:43.190Z,3.00
2022-11-27T13:02:27.020Z,2.57
2022-11-27T13:05:01.290Z,2.60
2022-11-27T13:07:38.805Z,2.87
2022-11-27T13:10:17.351Z,2.87
2022-11-27T13:12:51.334Z,3.13
2022-11-27T13:15:27.173Z,2.50
2022-11-27T13:18:02.869Z,2.47
2022-11-27T13:20:35.977Z,2.97
2022-11-27T13:23:04.114Z,2.63
2022-11-27T13:25:35.615Z,2.43
2022-11-27T13:28:05.572Z,2.90
2022-11-27T13:30:38.233Z,2.80
2022-11-27T13:33:07.801Z,2.67
2022-11-27T13:35:41.912Z,2.73
2022-11-27T13:38:12.994Z,3.30
2022-11-27T13:40:45.511Z,2.30
2022-11-27T13:43:23.803Z,2.60
2022-11-27T13:46:00.603Z,2.30
2022-11-27T13:48:33.929Z,2.50
2022-11-27T13:51:04.233Z,2.30
2022-11-27T13:53:37.449Z,2.57
2022-11-27T13:56:06.849Z,2.37
2022-11-27T13:58:36.705Z,2.37
2022-11-27T14:01:22.391Z,2.37
2022-11-27T14:03:51.384Z,2.40
2022-11-27T14:06:22.761Z,2.40
2022-11-27T14:08:57.064Z,2.20
2022-11-27T14:11:34.981Z,2.40
2022-11-27T14:14:12.265Z,2.10
2022-11-27T14:16:42.491Z,2.40
2022-11-27T14:19:33.359Z,2.40
2022-11-27T14:22:02.325Z,2.50
2022-11-27T14:24:41.227Z,2.67
2022-11-27T14:27:18.162Z,2.70
2022-11-27T14:29:46.491Z,3.13
2022-11-27T14:32:18.030Z,2.67
2022-11-27T14:34:47.869Z,2.40
2022-11-27T14:37:24.141Z,2.70
2022-11-27T14:39:52.111Z,3.10
2022-11-27T14:42:28.575Z,2.97
2022-11-27T14:45:13.945Z,2.93
2022-11-27T14:47:48.651Z,2.90
2022-11-27T14:50:17.450Z,3.00
2022-11-27T14:52:47.863Z,3.23
2022-11-27T14:55:17.189Z,3.50
2022-11-27T14:57:46.712Z,3.30
2022-11-27T15:00:20.791Z,3.17
2022-11-27T15:02:51.837Z,3.33
2022-11-27T15:05:25.409Z,3.00
2022-11-27T15:07:57.238Z,3.20
2022-11-27T15:10:37.922Z,3.10
2022-11-27T15:13:08.147Z,3.10
2022-11-27T15:15:42.875Z,3.67
2022-11-27T15:18:21.746Z,3.10
2022-11-27T15:20:50.241Z,3.77
2022-11-27T15:23:21.439Z,3.60
2022-11-27T15:25:52.599Z,3.40
2022-11-27T15:28:29.437Z,3.43
2022-11-27T15:30:58.505Z,4.40
2022-11-27T15:33:29.187Z,3.17
2022-11-27T15:36:16.382Z,3.23
2022-11-27T15:38:45.433Z,3.30
2022-11-27T15:41:24.686Z,2.93
2022-11-27T15:43:53.154Z,3.80
2022-11-27T15:46:26.078Z,3.57
2022-11-27T15:48:55.328Z,3.57
2022-11-27T15:51:23.536Z,3.30
2022-11-27T15:53:51.503Z,3.60
2022-11-27T15:56:19.884Z,3.63
2022-11-27T15:58:48.229Z,3.40
2022-11-27T16:01:16.285Z,3.30
2022-11-27T16:03:44.507Z,3.43
2022-11-27T16:06:13.795Z,2.90
2022-11-27T16:08:41.708Z,3.67
2022-11-27T16:11:13.506Z,3.67
2022-11-27T16:13:41.460Z,3.20
2022-11-27T16:16:09.986Z,3.40
2022-11-27T16:18:37.961Z,3.13
2022-11-27T16:21:06.907Z,3.60
2022-11-27T16:23:37.124Z,3.03
2022-11-27T16:26:06.893Z,3.57
2022-11-27T16:28:35.346Z,3.43
2022-11-27T16:31:08.692Z,3.60
2022-11-27T16:33:36.839Z,3.33
2022-11-27T16:36:06.998Z,3.60
2022-11-27T16:38:36.296Z,3.93
2022-11-27T16:41:06.227Z,3.90
2022-11-27T16:43:36.414Z,3.67
2022-11-27T16:46:06.905Z,3.60
2022-11-27T16:48:35.985Z,3.63
2022-11-27T16:51:06.335Z,3.33
2022-11-27T16:53:37.717Z,3.53
2022-11-27T16:56:06.260Z,3.43
2022-11-27T16:58:35.273Z,3.90
2022-11-27T17:01:06.625Z,3.57
2022-11-27T17:03:34.807Z,4.10
2022-11-27T17:06:07.320Z,4.03
2022-11-27T17:08:36.634Z,4.73
2022-11-27T17:11:09.373Z,4.00
2022-11-27T17:13:37.640Z,4.10
2022-11-27T17:16:06.625Z,3.60
2022-11-27T17:18:34.604Z,3.53
2022-11-27T17:21:04.250Z,4.03
2022-11-27T17:23:33.220Z,3.83
2022-11-27T17:26:07.340Z,4.10
2022-11-27T17:28:35.301Z,3.97
2022-11-27T17:31:03.421Z,4.23
2022-11-27T17:33:31.329Z,4.00
2022-11-27T17:35:59.310Z,4.20
2022-11-27T17:38:27.297Z,4.17
2022-11-27T17:40:59.794Z,4.00
2022-11-27T17:43:30.461Z,4.00
2022-11-27T17:45:59.052Z,4.20
2022-11-27T17:48:27.436Z,4.33
2022-11-27T17:50:56.024Z,4.33
2022-11-27T17:53:23.965Z,4.50
2022-11-27T17:55:51.902Z,3.67
2022-11-27T17:58:19.813Z,3.90
2022-11-27T18:00:49.148Z,3.93
2022-11-27T18:03:17.185Z,4.57
2022-11-27T18:05:45.118Z,4.17
2022-11-27T18:08:13.136Z,4.00
2022-11-27T18:10:41.798Z,4.57
2022-11-27T18:13:09.758Z,3.77
2022-11-27T18:15:38.591Z,4.47
2022-11-27T18:18:07.943Z,4.40
2022-11-27T18:20:36.916Z,4.07
2022-11-27T18:23:04.997Z,3.67
2022-11-27T18:25:32.965Z,3.50
2022-11-27T18:28:02.601Z,4.50
2022-11-27T18:30:30.576Z,4.20
2022-11-27T18:32:58.467Z,3.80
2022-11-27T18:35:27.727Z,4.57
2022-11-27T18:37:55.668Z,4.10
2022-11-27T18:40:23.583Z,4.90
2022-11-27T18:42:51.492Z,4.17
2022-11-27T18:45:32.275Z,4.90
2022-11-27T18:48:01.083Z,4.93
2022-11-27T18:50:30.372Z,4.90
2022-11-27T18:52:58.288Z,5.10
2022-11-27T18:55:26.214Z,4.40
2022-11-27T18:57:54.570Z,4.30
2022-11-27T19:00:22.685Z,4.47
2022-11-27T19:02:50.654Z,4.97
2022-11-27T19:05:18.614Z,4.30
2022-11-27T19:07:48.049Z,4.17
2022-11-27T19:10:16.166Z,4.07
2022-11-27T19:12:43.974Z,4.67
2022-11-27T19:15:12.012Z,4.30
2022-11-27T19:17:39.892Z,4.17
2022-11-27T19:20:09.442Z,4.27
2022-11-27T19:22:39.346Z,4.70
2022-11-27T19:25:09.453Z,4.77
2022-11-27T19:27:37.339Z,4.53
2022-11-27T19:30:06.319Z,4.40
2022-11-27T19:32:34.225Z,4.50
2022-11-27T19:35:06.921Z,4.30
2022-11-27T19:37:36.898Z,4.53
2022-11-27T19:40:06.518Z,4.27
2022-11-27T19:42:35.933Z,4.47
2022-11-27T19:45:03.791Z,4.30
2022-11-27T19:47:31.760Z,4.90
2022-11-27T19:49:59.647Z,5.43
2022-11-27T19:52:27.620Z,4.20
2022-11-27T19:54:55.473Z,5.17
2022-11-27T19:57:23.390Z,5.40
2022-11-27T19:59:52.635Z,4.80
2022-11-27T20:02:20.582Z,5.00
2022-11-27T20:04:48.488Z,4.97
2022-11-27T20:07:16.386Z,5.43
2022-11-27T20:09:44.373Z,5.30
2022-11-27T20:12:12.473Z,4.40
2022-11-27T20:14:40.682Z,4.77
2022-11-27T20:17:10.121Z,5.03
2022-11-27T20:19:38.602Z,4.73
2022-11-27T20:22:07.429Z,4.93
2022-11-27T20:24:44.073Z,5.33
2022-11-27T20:27:23.476Z,5.33
2022-11-27T20:29:51.348Z,5.07
2022-11-27T20:32:20.614Z,5.13
2022-11-27T20:34:48.480Z,5.50
2022-11-27T20:37:16.434Z,5.23
2022-11-27T20:39:44.414Z,5.27
2022-11-27T20:42:12.251Z,5.27
2022-11-27T20:44:40.514Z,5.37
2022-11-27T20:47:08.387Z,5.23
2022-11-27T20:49:37.739Z,5.03
2022-11-27T20:52:05.966Z,5.00
2022-11-27T20:54:33.806Z,5.40
2022-11-27T20:57:01.648Z,5.27
2022-11-27T20:59:29.520Z,5.23
2022-11-27T21:01:57.473Z,5.43
2022-11-27T21:04:26.851Z,5.50
2022-11-27T21:06:57.575Z,5.67
2022-11-27T21:09:26.762Z,5.10
2022-11-27T21:11:55.050Z,5.43
2022-11-27T21:14:22.926Z,5.67
2022-11-27T21:16:52.294Z,5.40
2022-11-27T21:19:22.076Z,4.87
2022-11-27T21:21:50.835Z,5.30
2022-11-27T21:24:20.861Z,5.43
2022-11-27T21:26:48.953Z,5.07
2022-11-27T21:29:17.336Z,5.17
2022-11-27T21:31:47.217Z,4.97
2022-11-27T21:34:15.993Z,5.00
2022-11-27T21:36:44.042Z,4.40
2022-11-27T21:39:13.770Z,4.77
2022-11-27T21:41:43.014Z,4.90
2022-11-27T21:44:11.137Z,5.17
2022-11-27T21:46:39.554Z,4.93
2022-11-27T21:49:07.512Z,4.97
2022-11-27T21:51:35.475Z,4.83
2022-11-27T21:54:06.739Z,5.43
2022-11-27T21:56:37.861Z,4.50
2022-11-27T21:59:07.684Z,4.63
2022-11-27T22:01:36.164Z,5.10
2022-11-27T22:04:04.332Z,4.50
2022-11-27T22:06:38.000Z,4.60
2022-11-27T22:09:14.790Z,4.80
2022-11-27T22:11:44.035Z,4.47
2022-11-27T22:14:13.821Z,4.50
2022-11-27T22:16:45.224Z,4.17
2022-11-27T22:19:14.145Z,4.33
2022-11-27T22:21:42.636Z,4.10
2022-11-27T22:24:16.847Z,4.07
2022-11-27T22:26:47.168Z,4.40
2022-11-27T22:29:16.531Z,4.00
2022-11-27T22:31:44.405Z,3.87
2022-11-27T22:34:12.297Z,4.20
2022-11-27T22:36:40.186Z,4.50
2022-11-27T22:39:09.108Z,4.13
2022-11-27T22:41:38.475Z,4.27
2022-11-27T22:44:07.354Z,4.80
2022-11-27T22:46:37.801Z,4.53
2022-11-27T22:49:07.679Z,4.57
2022-11-27T22:51:36.810Z,4.47
2022-11-27T22:54:06.756Z,4.23
2022-11-27T22:56:35.932Z,4.80
2022-11-27T22:59:31.109Z,4.23
2022-11-27T23:01:55.094Z,4.70
2022-11-27T23:04:23.004Z,4.80
2022-11-27T23:06:50.957Z,4.47
2022-11-27T23:09:19.752Z,4.77
2022-11-27T23:11:48.035Z,4.37
2022-11-27T23:14:15.985Z,4.27
2022-11-27T23:16:43.997Z,3.97
2022-11-27T23:19:13.313Z,4.90
2022-11-27T23:21:41.508Z,4.33
2022-11-27T23:24:12.158Z,5.03
2022-11-27T23:26:40.333Z,5.40
2022-11-27T23:29:08.210Z,4.90
2022-11-27T23:31:36.558Z,4.90
2022-11-27T23:34:07.174Z,5.37
2022-11-27T23:36:37.142Z,5.00
2022-11-27T23:39:07.564Z,5.03
2022-11-27T23:41:35.734Z,5.07
2022-11-27T23:44:03.671Z,4.97
2022-11-27T23:46:32.292Z,4.63
2022-11-27T23:49:00.887Z,5.03
2022-11-27T23:51:31.632Z,5.33
2022-11-27T23:54:01.924Z,4.83
2022-11-27T23:56:31.666Z,4.57
2022-11-27T23:59:00.348Z,4.63
